sensor_id;sensor_type;location;lat;lon;timestamp;temperature;humidity
9919;DHT22;4998;51.024;13.828;2023-04-03T00:01:03;7.80;64.30
9919;DHT22;4998;51.024;13.828;2023-04-03T00:03:30;7.80;64.20
9919;DHT22;4998;51.024;13.828;2023-04-03T00:05:57;7.70;64.20
9919;DHT22;4998;51.024;13.828;2023-04-03T00:08:25;7.70;64.00
9919;DHT22;4998;51.024;13.828;2023-04-03T00:10:53;7.60;63.70
9919;DHT22;4998;51.024;13.828;2023-04-03T00:13:20;7.60;63.80
9919;DHT22;4998;51.024;13.828;2023-04-03T00:15:47;7.50;63.80
9919;DHT22;4998;51.024;13.828;2023-04-03T00:18:15;7.50;64.00
9919;DHT22;4998;51.024;13.828;2023-04-03T00:20:42;7.40;63.80
9919;DHT22;4998;51.024;13.828;2023-04-03T00:23:09;7.40;63.80
9919;DHT22;4998;51.024;13.828;2023-04-03T00:25:36;7.40;63.70
9919;DHT22;4998;51.024;13.828;2023-04-03T00:28:05;7.30;63.50
9919;DHT22;4998;51.024;13.828;2023-04-03T00:30:32;7.30;63.50
9919;DHT22;4998;51.024;13.828;2023-04-03T00:32:59;7.30;63.80
9919;DHT22;4998;51.024;13.828;2023-04-03T00:35:27;7.30;63.60
9919;DHT22;4998;51.024;13.828;2023-04-03T00:37:55;7.30;63.80
9919;DHT22;4998;51.024;13.828;2023-04-03T00:40:24;7.30;63.80
9919;DHT22;4998;51.024;13.828;2023-04-03T00:42:55;7.20;63.80
9919;DHT22;4998;51.024;13.828;2023-04-03T00:45:29;7.30;63.80
9919;DHT22;4998;51.024;13.828;2023-04-03T00:47:58;7.20;64.60
9919;DHT22;4998;51.024;13.828;2023-04-03T00:50:27;7.30;64.20
9919;DHT22;4998;51.024;13.828;2023-04-03T00:52:55;7.30;64.20
9919;DHT22;4998;51.024;13.828;2023-04-03T00:55:23;7.30;64.10
9919;DHT22;4998;51.024;13.828;2023-04-03T00:57:51;7.30;64.00
9919;DHT22;4998;51.024;13.828;2023-04-03T01:00:20;7.30;63.80
9919;DHT22;4998;51.024;13.828;2023-04-03T01:02:49;7.30;63.90
9919;DHT22;4998;51.024;13.828;2023-04-03T01:05:17;7.30;63.70
9919;DHT22;4998;51.024;13.828;2023-04-03T01:07:47;7.30;63.70
9919;DHT22;4998;51.024;13.828;2023-04-03T01:10:15;7.30;63.70
9919;DHT22;4998;51.024;13.828;2023-04-03T01:12:46;7.30;63.50
9919;DHT22;4998;51.024;13.828;2023-04-03T01:15:17;7.30;63.40
9919;DHT22;4998;51.024;13.828;2023-04-03T01:17:46;7.30;62.80
9919;DHT22;4998;51.024;13.828;2023-04-03T01:26:19;7.20;63.00
9919;DHT22;4998;51.024;13.828;2023-04-03T01:28:47;7.20;63.20
9919;DHT22;4998;51.024;13.828;2023-04-03T01:31:20;7.20;63.30
9919;DHT22;4998;51.024;13.828;2023-04-03T01:33:50;7.10;63.50
9919;DHT22;4998;51.024;13.828;2023-04-03T01:36:19;7.10;63.30
9919;DHT22;4998;51.024;13.828;2023-04-03T01:38:47;7.10;63.20
9919;DHT22;4998;51.024;13.828;2023-04-03T01:41:14;7.10;63.20
9919;DHT22;4998;51.024;13.828;2023-04-03T01:43:42;7.10;63.00
9919;DHT22;4998;51.024;13.828;2023-04-03T01:46:09;7.10;62.80
9919;DHT22;4998;51.024;13.828;2023-04-03T01:48:36;7.10;62.90
9919;DHT22;4998;51.024;13.828;2023-04-03T01:51:05;7.10;62.80
9919;DHT22;4998;51.024;13.828;2023-04-03T01:53:32;7.10;62.60
9919;DHT22;4998;51.024;13.828;2023-04-03T01:55:59;7.10;62.80
9919;DHT22;4998;51.024;13.828;2023-04-03T01:58:27;7.10;62.60
9919;DHT22;4998;51.024;13.828;2023-04-03T02:00:54;7.00;62.30
9919;DHT22;4998;51.024;13.828;2023-04-03T02:03:21;7.00;62.10
9919;DHT22;4998;51.024;13.828;2023-04-03T02:05:49;6.90;62.10
9919;DHT22;4998;51.024;13.828;2023-04-03T02:08:18;6.90;62.00
9919;DHT22;4998;51.024;13.828;2023-04-03T02:10:47;6.80;62.00
9919;DHT22;4998;51.024;13.828;2023-04-03T02:13:14;6.80;62.00
9919;DHT22;4998;51.024;13.828;2023-04-03T02:15:41;6.70;62.00
9919;DHT22;4998;51.024;13.828;2023-04-03T02:18:09;6.90;62.20
9919;DHT22;4998;51.024;13.828;2023-04-03T02:20:36;6.70;62.10
9919;DHT22;4998;51.024;13.828;2023-04-03T02:23:03;6.60;61.80
9919;DHT22;4998;51.024;13.828;2023-04-03T02:25:32;6.50;61.60
9919;DHT22;4998;51.024;13.828;2023-04-03T02:27:59;6.50;61.60
9919;DHT22;4998;51.024;13.828;2023-04-03T02:30:26;6.40;61.80
9919;DHT22;4998;51.024;13.828;2023-04-03T02:32:53;6.40;62.00
9919;DHT22;4998;51.024;13.828;2023-04-03T02:35:21;6.40;62.00
9919;DHT22;4998;51.024;13.828;2023-04-03T02:37:48;6.30;61.90
9919;DHT22;4998;51.024;13.828;2023-04-03T02:40:15;6.30;61.90
9919;DHT22;4998;51.024;13.828;2023-04-03T02:42:44;6.30;61.80
9919;DHT22;4998;51.024;13.828;2023-04-03T02:45:11;6.20;61.80
9919;DHT22;4998;51.024;13.828;2023-04-03T02:47:38;6.20;61.80
9919;DHT22;4998;51.024;13.828;2023-04-03T02:50:06;6.20;61.80
9919;DHT22;4998;51.024;13.828;2023-04-03T02:52:33;6.10;61.80
9919;DHT22;4998;51.024;13.828;2023-04-03T02:55:00;6.10;61.90
9919;DHT22;4998;51.024;13.828;2023-04-03T02:57:28;6.10;61.80
9919;DHT22;4998;51.024;13.828;2023-04-03T02:59:56;6.00;61.70
9919;DHT22;4998;51.024;13.828;2023-04-03T03:02:24;6.00;61.70
9919;DHT22;4998;51.024;13.828;2023-04-03T03:04:51;6.00;61.90
9919;DHT22;4998;51.024;13.828;2023-04-03T03:07:18;5.90;61.80
9919;DHT22;4998;51.024;13.828;2023-04-03T03:09:45;5.90;61.80
9919;DHT22;4998;51.024;13.828;2023-04-03T03:12:12;5.80;61.70
9919;DHT22;4998;51.024;13.828;2023-04-03T03:14:39;5.80;61.70
9919;DHT22;4998;51.024;13.828;2023-04-03T03:17:09;5.80;61.70
9919;DHT22;4998;51.024;13.828;2023-04-03T03:19:36;5.80;61.60
9919;DHT22;4998;51.024;13.828;2023-04-03T03:22:03;5.70;61.50
9919;DHT22;4998;51.024;13.828;2023-04-03T03:24:30;5.70;61.60
9919;DHT22;4998;51.024;13.828;2023-04-03T03:26:57;5.60;61.50
9919;DHT22;4998;51.024;13.828;2023-04-03T03:29:25;5.60;61.60
9919;DHT22;4998;51.024;13.828;2023-04-03T03:31:52;5.50;61.50
9919;DHT22;4998;51.024;13.828;2023-04-03T03:34:20;5.50;61.70
9919;DHT22;4998;51.024;13.828;2023-04-03T03:36:47;5.50;61.30
9919;DHT22;4998;51.024;13.828;2023-04-03T03:39:15;5.40;61.70
9919;DHT22;4998;51.024;13.828;2023-04-03T03:41:42;5.30;61.70
9919;DHT22;4998;51.024;13.828;2023-04-03T03:44:09;5.30;61.80
9919;DHT22;4998;51.024;13.828;2023-04-03T03:46:36;5.30;61.80
9919;DHT22;4998;51.024;13.828;2023-04-03T03:49:03;5.20;61.70
9919;DHT22;4998;51.024;13.828;2023-04-03T03:51:31;5.20;61.90
9919;DHT22;4998;51.024;13.828;2023-04-03T03:53:58;5.20;62.00
9919;DHT22;4998;51.024;13.828;2023-04-03T03:56:25;5.10;62.00
9919;DHT22;4998;51.024;13.828;2023-04-03T03:58:53;5.10;62.10
9919;DHT22;4998;51.024;13.828;2023-04-03T04:01:22;5.10;62.20
9919;DHT22;4998;51.024;13.828;2023-04-03T04:03:50;5.10;62.50
9919;DHT22;4998;51.024;13.828;2023-04-03T04:06:17;5.00;62.40
9919;DHT22;4998;51.024;13.828;2023-04-03T04:08:46;5.00;62.40
9919;DHT22;4998;51.024;13.828;2023-04-03T04:11:13;5.00;62.50
9919;DHT22;4998;51.024;13.828;2023-04-03T04:13:40;4.90;62.50
9919;DHT22;4998;51.024;13.828;2023-04-03T04:16:07;4.90;62.50
9919;DHT22;4998;51.024;13.828;2023-04-03T04:18:35;4.90;62.50
9919;DHT22;4998;51.024;13.828;2023-04-03T04:21:02;4.80;62.60
9919;DHT22;4998;51.024;13.828;2023-04-03T04:23:29;4.80;62.60
9919;DHT22;4998;51.024;13.828;2023-04-03T04:25:58;4.70;62.80
9919;DHT22;4998;51.024;13.828;2023-04-03T04:28:25;4.70;62.90
9919;DHT22;4998;51.024;13.828;2023-04-03T04:30:52;4.70;63.10
9919;DHT22;4998;51.024;13.828;2023-04-03T04:33:20;4.70;63.20
9919;DHT22;4998;51.024;13.828;2023-04-03T04:35:47;4.70;63.20
9919;DHT22;4998;51.024;13.828;2023-04-03T04:38:15;4.60;63.30
9919;DHT22;4998;51.024;13.828;2023-04-03T04:40:42;4.60;63.30
9919;DHT22;4998;51.024;13.828;2023-04-03T04:43:11;4.60;63.50
9919;DHT22;4998;51.024;13.828;2023-04-03T04:45:40;4.50;63.50
9919;DHT22;4998;51.024;13.828;2023-04-03T04:48:07;4.50;63.60
9919;DHT22;4998;51.024;13.828;2023-04-03T04:50:35;4.50;63.70
9919;DHT22;4998;51.024;13.828;2023-04-03T04:53:02;4.50;63.90
9919;DHT22;4998;51.024;13.828;2023-04-03T04:55:30;4.40;63.90
9919;DHT22;4998;51.024;13.828;2023-04-03T04:57:57;4.40;63.90
9919;DHT22;4998;51.024;13.828;2023-04-03T05:00:25;4.40;64.00
9919;DHT22;4998;51.024;13.828;2023-04-03T05:02:52;4.40;64.20
9919;DHT22;4998;51.024;13.828;2023-04-03T05:05:20;4.30;64.30
9919;DHT22;4998;51.024;13.828;2023-04-03T05:07:47;4.30;64.50
9919;DHT22;4998;51.024;13.828;2023-04-03T05:10:15;4.30;64.50
9919;DHT22;4998;51.024;13.828;2023-04-03T05:12:42;4.30;64.60
9919;DHT22;4998;51.024;13.828;2023-04-03T05:15:09;4.30;64.80
9919;DHT22;4998;51.024;13.828;2023-04-03T05:17:38;4.30;64.80
9919;DHT22;4998;51.024;13.828;2023-04-03T05:20:06;4.30;64.80
9919;DHT22;4998;51.024;13.828;2023-04-03T05:22:34;4.30;64.90
9919;DHT22;4998;51.024;13.828;2023-04-03T05:25:01;4.30;65.00
9919;DHT22;4998;51.024;13.828;2023-04-03T05:27:28;4.30;65.00
9919;DHT22;4998;51.024;13.828;2023-04-03T05:29:55;4.30;65.10
9919;DHT22;4998;51.024;13.828;2023-04-03T05:32:23;4.30;65.20
9919;DHT22;4998;51.024;13.828;2023-04-03T05:34:53;4.30;65.40
9919;DHT22;4998;51.024;13.828;2023-04-03T05:37:20;4.30;65.50
9919;DHT22;4998;51.024;13.828;2023-04-03T05:39:47;4.30;65.50
9919;DHT22;4998;51.024;13.828;2023-04-03T05:42:14;4.30;65.60
9919;DHT22;4998;51.024;13.828;2023-04-03T05:44:41;4.30;65.70
9919;DHT22;4998;51.024;13.828;2023-04-03T05:47:09;4.30;66.00
9919;DHT22;4998;51.024;13.828;2023-04-03T05:49:36;4.30;66.20
9919;DHT22;4998;51.024;13.828;2023-04-03T05:52:11;4.40;66.30
9919;DHT22;4998;51.024;13.828;2023-04-03T05:54:44;4.40;66.50
9919;DHT22;4998;51.024;13.828;2023-04-03T05:57:13;4.40;66.50
9919;DHT22;4998;51.024;13.828;2023-04-03T05:59:41;4.50;66.60
9919;DHT22;4998;51.024;13.828;2023-04-03T06:02:10;4.50;66.60
9919;DHT22;4998;51.024;13.828;2023-04-03T06:04:38;4.60;66.60
9919;DHT22;4998;51.024;13.828;2023-04-03T06:07:08;4.60;66.80
9919;DHT22;4998;51.024;13.828;2023-04-03T06:09:37;4.60;66.70
9919;DHT22;4998;51.024;13.828;2023-04-03T06:12:04;4.70;67.00
9919;DHT22;4998;51.024;13.828;2023-04-03T06:14:31;4.70;67.20
9919;DHT22;4998;51.024;13.828;2023-04-03T06:16:58;4.80;67.60
9919;DHT22;4998;51.024;13.828;2023-04-03T06:19:27;4.90;67.90
9919;DHT22;4998;51.024;13.828;2023-04-03T06:21:55;5.00;68.20
9919;DHT22;4998;51.024;13.828;2023-04-03T06:24:23;5.20;68.10
9919;DHT22;4998;51.024;13.828;2023-04-03T06:26:51;5.30;67.90
9919;DHT22;4998;51.024;13.828;2023-04-03T06:29:19;5.40;67.70
9919;DHT22;4998;51.024;13.828;2023-04-03T06:31:46;5.50;67.50
9919;DHT22;4998;51.024;13.828;2023-04-03T06:34:14;5.60;67.20
9919;DHT22;4998;51.024;13.828;2023-04-03T06:36:41;5.70;67.10
9919;DHT22;4998;51.024;13.828;2023-04-03T06:39:09;5.70;66.70
9919;DHT22;4998;51.024;13.828;2023-04-03T06:41:40;5.80;66.40
9919;DHT22;4998;51.024;13.828;2023-04-03T06:44:08;5.90;65.90
9919;DHT22;4998;51.024;13.828;2023-04-03T06:46:37;5.90;65.70
9919;DHT22;4998;51.024;13.828;2023-04-03T06:49:05;5.90;65.60
9919;DHT22;4998;51.024;13.828;2023-04-03T06:51:33;5.90;65.50
9919;DHT22;4998;51.024;13.828;2023-04-03T06:54:01;5.90;65.40
9919;DHT22;4998;51.024;13.828;2023-04-03T06:56:28;6.00;65.70
9919;DHT22;4998;51.024;13.828;2023-04-03T06:58:57;6.00;65.60
9919;DHT22;4998;51.024;13.828;2023-04-03T07:01:25;6.00;65.30
9919;DHT22;4998;51.024;13.828;2023-04-03T07:03:53;6.00;65.50
9919;DHT22;4998;51.024;13.828;2023-04-03T07:06:21;6.00;65.30
9919;DHT22;4998;51.024;13.828;2023-04-03T07:08:48;6.00;65.00
9919;DHT22;4998;51.024;13.828;2023-04-03T07:11:16;6.00;64.80
9919;DHT22;4998;51.024;13.828;2023-04-03T07:13:43;6.10;64.90
9919;DHT22;4998;51.024;13.828;2023-04-03T07:16:12;6.10;64.80
9919;DHT22;4998;51.024;13.828;2023-04-03T07:18:39;6.10;65.60
9919;DHT22;4998;51.024;13.828;2023-04-03T07:21:07;6.10;64.90
9919;DHT22;4998;51.024;13.828;2023-04-03T07:23:34;6.10;65.00
9919;DHT22;4998;51.024;13.828;2023-04-03T07:26:01;6.10;65.00
9919;DHT22;4998;51.024;13.828;2023-04-03T07:28:28;6.10;64.90
9919;DHT22;4998;51.024;13.828;2023-04-03T07:31:01;6.20;64.80
9919;DHT22;4998;51.024;13.828;2023-04-03T07:33:32;6.20;64.70
9919;DHT22;4998;51.024;13.828;2023-04-03T07:35:59;6.20;64.60
9919;DHT22;4998;51.024;13.828;2023-04-03T07:38:26;6.20;64.80
9919;DHT22;4998;51.024;13.828;2023-04-03T07:40:54;6.20;64.60
9919;DHT22;4998;51.024;13.828;2023-04-03T07:43:22;6.20;64.60
9919;DHT22;4998;51.024;13.828;2023-04-03T07:45:50;6.20;64.70
9919;DHT22;4998;51.024;13.828;2023-04-03T07:48:19;6.30;64.90
9919;DHT22;4998;51.024;13.828;2023-04-03T07:50:48;6.20;64.70
9919;DHT22;4998;51.024;13.828;2023-04-03T07:53:16;6.30;64.70
9919;DHT22;4998;51.024;13.828;2023-04-03T07:55:46;6.30;64.60
9919;DHT22;4998;51.024;13.828;2023-04-03T07:58:16;6.30;64.40
9919;DHT22;4998;51.024;13.828;2023-04-03T08:00:43;6.30;64.20
9919;DHT22;4998;51.024;13.828;2023-04-03T08:03:13;6.30;64.90
9919;DHT22;4998;51.024;13.828;2023-04-03T08:05:43;6.30;64.80
9919;DHT22;4998;51.024;13.828;2023-04-03T08:08:13;6.30;64.90
9919;DHT22;4998;51.024;13.828;2023-04-03T08:10:41;6.30;65.10
9919;DHT22;4998;51.024;13.828;2023-04-03T08:13:09;6.40;65.40
9919;DHT22;4998;51.024;13.828;2023-04-03T08:15:36;6.50;65.50
9919;DHT22;4998;51.024;13.828;2023-04-03T08:18:04;6.60;65.20
9919;DHT22;4998;51.024;13.828;2023-04-03T08:20:31;6.60;65.10
9919;DHT22;4998;51.024;13.828;2023-04-03T08:22:58;6.70;64.80
9919;DHT22;4998;51.024;13.828;2023-04-03T08:25:27;6.70;64.60
9919;DHT22;4998;51.024;13.828;2023-04-03T08:27:55;6.70;64.20
9919;DHT22;4998;51.024;13.828;2023-04-03T08:30:22;6.80;64.20
9919;DHT22;4998;51.024;13.828;2023-04-03T08:32:49;6.80;64.00
9919;DHT22;4998;51.024;13.828;2023-04-03T08:35:16;6.80;64.00
9919;DHT22;4998;51.024;13.828;2023-04-03T08:37:43;6.80;64.00
9919;DHT22;4998;51.024;13.828;2023-04-03T08:40:13;6.80;63.80
9919;DHT22;4998;51.024;13.828;2023-04-03T08:42:54;6.80;63.60
9919;DHT22;4998;51.024;13.828;2023-04-03T08:45:30;6.80;63.60
9919;DHT22;4998;51.024;13.828;2023-04-03T08:48:06;6.80;63.70
9919;DHT22;4998;51.024;13.828;2023-04-03T08:50:38;6.80;64.00
9919;DHT22;4998;51.024;13.828;2023-04-03T08:53:13;6.80;64.00
9919;DHT22;4998;51.024;13.828;2023-04-03T08:55:44;6.80;63.90
9919;DHT22;4998;51.024;13.828;2023-04-03T08:58:16;6.90;64.10
9919;DHT22;4998;51.024;13.828;2023-04-03T09:00:49;6.90;63.70
9919;DHT22;4998;51.024;13.828;2023-04-03T09:03:18;6.90;64.00
9919;DHT22;4998;51.024;13.828;2023-04-03T09:05:50;7.00;64.30
9919;DHT22;4998;51.024;13.828;2023-04-03T09:08:22;7.00;64.10
9919;DHT22;4998;51.024;13.828;2023-04-03T09:11:00;7.10;63.90
9919;DHT22;4998;51.024;13.828;2023-04-03T09:13:35;7.10;63.60
9919;DHT22;4998;51.024;13.828;2023-04-03T09:16:14;7.10;63.20
9919;DHT22;4998;51.024;13.828;2023-04-03T09:18:45;7.10;63.00
9919;DHT22;4998;51.024;13.828;2023-04-03T09:21:20;7.20;63.30
9919;DHT22;4998;51.024;13.828;2023-04-03T09:23:50;7.20;63.30
9919;DHT22;4998;51.024;13.828;2023-04-03T09:26:21;7.20;63.20
9919;DHT22;4998;51.024;13.828;2023-04-03T09:28:53;7.30;63.30
9919;DHT22;4998;51.024;13.828;2023-04-03T09:31:23;7.30;63.00
9919;DHT22;4998;51.024;13.828;2023-04-03T09:33:53;7.40;63.30
9919;DHT22;4998;51.024;13.828;2023-04-03T09:36:41;7.40;63.00
9919;DHT22;4998;51.024;13.828;2023-04-03T09:39:12;7.40;62.80
9919;DHT22;4998;51.024;13.828;2023-04-03T09:41:42;7.50;63.20
9919;DHT22;4998;51.024;13.828;2023-04-03T09:44:24;7.60;63.10
9919;DHT22;4998;51.024;13.828;2023-04-03T09:46:51;7.60;63.00
9919;DHT22;4998;51.024;13.828;2023-04-03T09:49:19;7.70;63.30
9919;DHT22;4998;51.024;13.828;2023-04-03T09:51:47;7.80;62.80
9919;DHT22;4998;51.024;13.828;2023-04-03T09:54:32;7.90;62.90
9919;DHT22;4998;51.024;13.828;2023-04-03T09:57:06;7.90;62.50
9919;DHT22;4998;51.024;13.828;2023-04-03T09:59:35;8.00;62.00
9919;DHT22;4998;51.024;13.828;2023-04-03T10:02:16;8.00;61.70
9919;DHT22;4998;51.024;13.828;2023-04-03T10:04:47;8.00;61.30
9919;DHT22;4998;51.024;13.828;2023-04-03T10:07:30;8.00;60.90
9919;DHT22;4998;51.024;13.828;2023-04-03T10:09:59;8.00;60.20
9919;DHT22;4998;51.024;13.828;2023-04-03T10:12:27;8.00;60.40
9919;DHT22;4998;51.024;13.828;2023-04-03T10:14:56;8.00;60.50
9919;DHT22;4998;51.024;13.828;2023-04-03T10:17:33;8.00;60.30
9919;DHT22;4998;51.024;13.828;2023-04-03T10:20:15;8.10;60.20
9919;DHT22;4998;51.024;13.828;2023-04-03T10:22:51;8.20;60.00
9919;DHT22;4998;51.024;13.828;2023-04-03T10:25:27;8.30;60.10
9919;DHT22;4998;51.024;13.828;2023-04-03T10:28:00;8.40;59.80
9919;DHT22;4998;51.024;13.828;2023-04-03T10:30:34;8.50;59.20
9919;DHT22;4998;51.024;13.828;2023-04-03T10:33:26;8.60;58.90
9919;DHT22;4998;51.024;13.828;2023-04-03T10:36:02;8.60;58.50
9919;DHT22;4998;51.024;13.828;2023-04-03T10:38:43;8.70;58.60
9919;DHT22;4998;51.024;13.828;2023-04-03T10:41:17;8.70;58.20
9919;DHT22;4998;51.024;13.828;2023-04-03T10:43:55;8.80;58.30
9919;DHT22;4998;51.024;13.828;2023-04-03T10:46:34;8.80;58.30
9919;DHT22;4998;51.024;13.828;2023-04-03T10:49:11;8.80;58.00
9919;DHT22;4998;51.024;13.828;2023-04-03T10:51:43;8.80;57.60
9919;DHT22;4998;51.024;13.828;2023-04-03T10:54:15;8.80;57.60
9919;DHT22;4998;51.024;13.828;2023-04-03T10:56:47;8.80;57.00
9919;DHT22;4998;51.024;13.828;2023-04-03T10:59:23;8.90;56.00
9919;DHT22;4998;51.024;13.828;2023-04-03T11:01:56;8.90;56.30
9919;DHT22;4998;51.024;13.828;2023-04-03T11:04:26;8.90;56.50
9919;DHT22;4998;51.024;13.828;2023-04-03T11:06:57;9.00;56.30
9919;DHT22;4998;51.024;13.828;2023-04-03T11:09:27;9.00;56.30
9919;DHT22;4998;51.024;13.828;2023-04-03T11:11:58;9.00;55.90
9919;DHT22;4998;51.024;13.828;2023-04-03T11:14:28;9.00;55.70
9919;DHT22;4998;51.024;13.828;2023-04-03T11:17:09;9.00;55.50
9919;DHT22;4998;51.024;13.828;2023-04-03T11:19:42;9.00;55.00
9919;DHT22;4998;51.024;13.828;2023-04-03T11:22:18;9.00;54.70
9919;DHT22;4998;51.024;13.828;2023-04-03T11:24:56;9.00;54.30
9919;DHT22;4998;51.024;13.828;2023-04-03T11:27:25;9.00;54.50
9919;DHT22;4998;51.024;13.828;2023-04-03T11:29:57;9.00;54.70
9919;DHT22;4998;51.024;13.828;2023-04-03T11:32:58;9.00;54.80
9919;DHT22;4998;51.024;13.828;2023-04-03T11:35:27;9.00;54.30
9919;DHT22;4998;51.024;13.828;2023-04-03T11:37:55;9.00;54.10
9919;DHT22;4998;51.024;13.828;2023-04-03T11:40:26;9.00;53.90
9919;DHT22;4998;51.024;13.828;2023-04-03T11:43:04;9.00;53.70
9919;DHT22;4998;51.024;13.828;2023-04-03T11:45:35;9.10;53.40
9919;DHT22;4998;51.024;13.828;2023-04-03T11:48:06;9.10;53.80
9919;DHT22;4998;51.024;13.828;2023-04-03T11:50:42;9.10;53.60
9919;DHT22;4998;51.024;13.828;2023-04-03T11:53:31;9.10;53.50
9919;DHT22;4998;51.024;13.828;2023-04-03T11:56:00;9.10;53.40
9919;DHT22;4998;51.024;13.828;2023-04-03T11:58:30;9.20;53.50
9919;DHT22;4998;51.024;13.828;2023-04-03T12:01:03;9.20;52.90
9919;DHT22;4998;51.024;13.828;2023-04-03T12:06:47;9.20;53.20
9919;DHT22;4998;51.024;13.828;2023-04-03T12:09:24;9.30;53.00
9919;DHT22;4998;51.024;13.828;2023-04-03T12:11:52;9.30;52.70
9919;DHT22;4998;51.024;13.828;2023-04-03T12:14:22;9.30;52.30
9919;DHT22;4998;51.024;13.828;2023-04-03T12:16:52;9.30;52.00
9919;DHT22;4998;51.024;13.828;2023-04-03T12:19:36;9.20;52.10
9919;DHT22;4998;51.024;13.828;2023-04-03T12:22:14;9.20;51.80
9919;DHT22;4998;51.024;13.828;2023-04-03T12:24:43;9.20;51.80
9919;DHT22;4998;51.024;13.828;2023-04-03T12:27:28;9.20;52.10
9919;DHT22;4998;51.024;13.828;2023-04-03T12:30:05;9.20;51.70
9919;DHT22;4998;51.024;13.828;2023-04-03T12:35:30;9.20;51.80
9919;DHT22;4998;51.024;13.828;2023-04-03T12:38:21;9.20;51.50
9919;DHT22;4998;51.024;13.828;2023-04-03T12:40:58;9.20;51.30
9919;DHT22;4998;51.024;13.828;2023-04-03T12:43:42;9.20;51.80
9919;DHT22;4998;51.024;13.828;2023-04-03T12:46:14;9.20;51.40
9919;DHT22;4998;51.024;13.828;2023-04-03T12:48:49;9.20;51.40
9919;DHT22;4998;51.024;13.828;2023-04-03T12:51:35;9.20;50.70
9919;DHT22;4998;51.024;13.828;2023-04-03T12:54:13;9.20;50.70
9919;DHT22;4998;51.024;13.828;2023-04-03T12:56:42;9.20;50.80
9919;DHT22;4998;51.024;13.828;2023-04-03T12:59:20;9.20;51.30
9919;DHT22;4998;51.024;13.828;2023-04-03T13:01:56;9.20;51.20
9919;DHT22;4998;51.024;13.828;2023-04-03T13:04:24;9.20;51.20
9919;DHT22;4998;51.024;13.828;2023-04-03T13:06:53;9.20;51.30
9919;DHT22;4998;51.024;13.828;2023-04-03T13:09:22;9.10;50.70
9919;DHT22;4998;51.024;13.828;2023-04-03T13:11:54;9.20;51.30
9919;DHT22;4998;51.024;13.828;2023-04-03T13:14:25;9.20;51.40
9919;DHT22;4998;51.024;13.828;2023-04-03T13:16:55;9.30;51.60
9919;DHT22;4998;51.024;13.828;2023-04-03T13:19:23;9.30;51.50
9919;DHT22;4998;51.024;13.828;2023-04-03T13:21:55;9.30;51.40
9919;DHT22;4998;51.024;13.828;2023-04-03T13:24:24;9.40;51.10
9919;DHT22;4998;51.024;13.828;2023-04-03T13:26:52;9.40;50.70
9919;DHT22;4998;51.024;13.828;2023-04-03T13:29:23;9.40;50.80
9919;DHT22;4998;51.024;13.828;2023-04-03T13:31:53;9.40;50.70
9919;DHT22;4998;51.024;13.828;2023-04-03T13:34:22;9.40;50.70
9919;DHT22;4998;51.024;13.828;2023-04-03T13:36:59;9.40;50.70
9919;DHT22;4998;51.024;13.828;2023-04-03T13:39:29;9.30;50.10
9919;DHT22;4998;51.024;13.828;2023-04-03T13:41:58;9.30;50.20
9919;DHT22;4998;51.024;13.828;2023-04-03T13:44:31;9.20;50.10
9919;DHT22;4998;51.024;13.828;2023-04-03T13:47:00;9.20;50.10
9919;DHT22;4998;51.024;13.828;2023-04-03T13:49:32;9.20;50.40
9919;DHT22;4998;51.024;13.828;2023-04-03T13:52:01;9.20;50.50
9919;DHT22;4998;51.024;13.828;2023-04-03T13:54:31;9.20;50.70
9919;DHT22;4998;51.024;13.828;2023-04-03T13:57:00;9.20;50.80
9919;DHT22;4998;51.024;13.828;2023-04-03T13:59:29;9.20;50.40
9919;DHT22;4998;51.024;13.828;2023-04-03T14:02:14;9.20;50.50
9919;DHT22;4998;51.024;13.828;2023-04-03T14:04:49;9.20;50.00
9919;DHT22;4998;51.024;13.828;2023-04-03T14:07:17;9.20;50.30
9919;DHT22;4998;51.024;13.828;2023-04-03T14:09:46;9.20;50.50
9919;DHT22;4998;51.024;13.828;2023-04-03T14:12:15;9.30;50.60
9919;DHT22;4998;51.024;13.828;2023-04-03T14:14:44;9.30;50.20
9919;DHT22;4998;51.024;13.828;2023-04-03T14:17:15;9.30;50.10
9919;DHT22;4998;51.024;13.828;2023-04-03T14:19:43;9.20;49.40
9919;DHT22;4998;51.024;13.828;2023-04-03T14:22:15;9.30;49.50
9919;DHT22;4998;51.024;13.828;2023-04-03T14:24:44;9.30;49.20
9919;DHT22;4998;51.024;13.828;2023-04-03T14:27:16;9.30;49.40
9919;DHT22;4998;51.024;13.828;2023-04-03T14:29:44;9.20;49.40
9919;DHT22;4998;51.024;13.828;2023-04-03T14:32:12;9.20;49.60
9919;DHT22;4998;51.024;13.828;2023-04-03T14:34:39;9.20;49.40
9919;DHT22;4998;51.024;13.828;2023-04-03T14:37:11;9.10;49.40
9919;DHT22;4998;51.024;13.828;2023-04-03T14:39:38;9.10;49.40
9919;DHT22;4998;51.024;13.828;2023-04-03T14:42:12;9.10;49.60
9919;DHT22;4998;51.024;13.828;2023-04-03T14:44:40;9.10;49.10
9919;DHT22;4998;51.024;13.828;2023-04-03T14:47:11;9.10;49.40
9919;DHT22;4998;51.024;13.828;2023-04-03T14:49:38;9.00;49.50
9919;DHT22;4998;51.024;13.828;2023-04-03T14:52:09;9.00;49.60
9919;DHT22;4998;51.024;13.828;2023-04-03T14:54:43;9.10;49.80
9919;DHT22;4998;51.024;13.828;2023-04-03T14:57:13;9.10;49.90
9919;DHT22;4998;51.024;13.828;2023-04-03T14:59:40;9.20;49.70
9919;DHT22;4998;51.024;13.828;2023-04-03T15:02:24;9.20;49.60
9919;DHT22;4998;51.024;13.828;2023-04-03T15:04:52;9.20;49.40
9919;DHT22;4998;51.024;13.828;2023-04-03T15:07:20;9.20;49.50
9919;DHT22;4998;51.024;13.828;2023-04-03T15:09:48;9.20;49.30
9919;DHT22;4998;51.024;13.828;2023-04-03T15:12:17;9.10;49.10
9919;DHT22;4998;51.024;13.828;2023-04-03T15:14:44;9.10;48.80
9919;DHT22;4998;51.024;13.828;2023-04-03T15:17:16;9.00;48.60
9919;DHT22;4998;51.024;13.828;2023-04-03T15:19:44;9.00;48.40
9919;DHT22;4998;51.024;13.828;2023-04-03T15:22:14;8.90;48.20
9919;DHT22;4998;51.024;13.828;2023-04-03T15:24:41;8.90;48.20
9919;DHT22;4998;51.024;13.828;2023-04-03T15:27:09;8.80;48.40
9919;DHT22;4998;51.024;13.828;2023-04-03T15:29:38;8.80;48.60
9919;DHT22;4998;51.024;13.828;2023-04-03T15:32:06;8.80;48.60
9919;DHT22;4998;51.024;13.828;2023-04-03T15:34:34;8.80;48.60
9919;DHT22;4998;51.024;13.828;2023-04-03T15:37:01;8.80;48.80
9919;DHT22;4998;51.024;13.828;2023-04-03T15:39:29;8.80;48.80
9919;DHT22;4998;51.024;13.828;2023-04-03T15:41:57;8.80;48.50
9919;DHT22;4998;51.024;13.828;2023-04-03T15:44:25;8.80;48.60
9919;DHT22;4998;51.024;13.828;2023-04-03T15:46:54;8.80;48.70
9919;DHT22;4998;51.024;13.828;2023-04-03T15:49:21;8.90;48.70
9919;DHT22;4998;51.024;13.828;2023-04-03T15:51:48;8.90;48.60
9919;DHT22;4998;51.024;13.828;2023-04-03T15:54:16;8.90;48.40
9919;DHT22;4998;51.024;13.828;2023-04-03T15:56:43;8.80;48.10
9919;DHT22;4998;51.024;13.828;2023-04-03T15:59:10;8.80;48.10
9919;DHT22;4998;51.024;13.828;2023-04-03T16:01:38;8.80;48.00
9919;DHT22;4998;51.024;13.828;2023-04-03T16:04:08;8.80;48.00
9919;DHT22;4998;51.024;13.828;2023-04-03T16:06:36;8.70;47.90
9919;DHT22;4998;51.024;13.828;2023-04-03T16:09:04;8.70;48.00
9919;DHT22;4998;51.024;13.828;2023-04-03T16:11:31;8.60;47.90
9919;DHT22;4998;51.024;13.828;2023-04-03T16:13:58;8.60;48.10
9919;DHT22;4998;51.024;13.828;2023-04-03T16:16:25;8.60;48.20
9919;DHT22;4998;51.024;13.828;2023-04-03T16:18:53;8.50;48.10
9919;DHT22;4998;51.024;13.828;2023-04-03T16:21:22;8.50;48.00
9919;DHT22;4998;51.024;13.828;2023-04-03T16:23:50;8.50;47.90
9919;DHT22;4998;51.024;13.828;2023-04-03T16:26:17;8.40;47.90
9919;DHT22;4998;51.024;13.828;2023-04-03T16:28:44;8.40;47.70
9919;DHT22;4998;51.024;13.828;2023-04-03T16:31:12;8.40;47.90